TimeEDT,TemperatureF,Dew PointF,Humidity,Sea Level PressureIn,VisibilityMPH,Wind Direction,Wind SpeedMPH,Gust SpeedMPH,PrecipitationIn,Events,Conditions,WindDirDegrees,DateUTC
12:53 AM,77.0,72.0,84,30.09,10.0,SSE,3.5,-,N/A,,Clear,150,2013-07-06 04:53:00
1:53 AM,79.0,71.1,77,30.09,10.0,SSW,4.6,-,N/A,,Clear,200,2013-07-06 05:53:00
2:53 AM,75.0,72.0,90,30.09,10.0,Calm,Calm,-,N/A,,Clear,0,2013-07-06 06:53:00
3:53 AM,75.0,72.0,90,30.09,10.0,SSE,3.5,-,N/A,,Clear,160,2013-07-06 07:53:00
4:53 AM,75.0,71.1,87,30.09,10.0,South,4.6,-,N/A,,Clear,170,2013-07-06 08:53:00
5:53 AM,75.0,72.0,90,30.10,10.0,South,5.8,-,N/A,,Clear,180,2013-07-06 09:53:00
6:53 AM,78.1,73.0,84,30.10,10.0,Calm,Calm,-,N/A,,Clear,0,2013-07-06 10:53:00
7:53 AM,81.0,73.0,77,30.10,10.0,Variable,5.8,-,N/A,,Clear,0,2013-07-06 11:53:00
8:53 AM,84.0,73.0,69,30.09,10.0,SW,3.5,-,N/A,,Clear,220,2013-07-06 12:53:00
9:53 AM,86.0,73.0,65,30.08,10.0,Variable,3.5,-,N/A,,Clear,0,2013-07-06 13:53:00
10:53 AM,88.0,71.1,57,30.07,10.0,West,6.9,16.1,N/A,,Scattered Clouds,260,2013-07-06 14:53:00
11:53 AM,89.1,71.1,55,30.06,10.0,SW,6.9,-,N/A,,Mostly Cloudy,220,2013-07-06 15:53:00
12:53 PM,90.0,69.1,50,30.05,10.0,Variable,4.6,-,N/A,,Mostly Cloudy,0,2013-07-06 16:53:00
1:53 PM,91.9,70.0,48,30.04,10.0,West,9.2,-,N/A,,Scattered Clouds,260,2013-07-06 17:53:00
2:53 PM,91.9,69.1,47,30.03,10.0,WSW,10.4,18.4,N/A,,Scattered Clouds,240,2013-07-06 18:53:00
3:53 PM,91.9,70.0,48,30.03,10.0,West,9.2,-,N/A,,Scattered Clouds,280,2013-07-06 19:53:00
4:53 PM,90.0,70.0,52,30.01,10.0,NW,5.8,-,N/A,,Overcast,310,2013-07-06 20:53:00
5:53 PM,90.0,71.1,54,30.00,10.0,WNW,4.6,-,N/A,,Clear,300,2013-07-06 21:53:00
6:53 PM,90.0,71.1,54,30.00,10.0,NW,6.9,-,N/A,,Clear,320,2013-07-06 22:53:00
7:53 PM,89.1,71.1,55,29.99,10.0,WNW,4.6,-,N/A,,Clear,300,2013-07-06 23:53:00
8:53 PM,84.0,73.0,69,30.00,10.0,Calm,Calm,-,N/A,,Clear,0,2013-07-07 00:53:00
9:53 PM,81.0,73.0,77,30.02,10.0,Calm,Calm,-,N/A,,Clear,0,2013-07-07 01:53:00
10:53 PM,82.0,73.0,74,30.03,10.0,Calm,Calm,-,N/A,,Clear,0,2013-07-07 02:53:00
11:53 PM,79.0,73.0,82,30.03,10.0,Calm,Calm,-,N/A,,Clear,0,2013-07-07 03:53:00